Colorado Springs, CO

5:40 PM MDT on August 22, 2014 (GMT -0600)
Usaf Academy | Change Station
CLOSE
Current Station
Airport
Location: Air Force Academy,
Elevation: 6572 ft
Nearby Weather Stations

Elev 6572 ft 38.97 °N, 104.81 °W | Updated 42 minutes ago

Scattered Clouds
Scattered Clouds
68 °F
Feels Like 68 °F
N
2
Wind Variable Wind from West

Today
High -- | Low -- °F
--% Chance of Precip.
Yesterday
High -- | Low -- °F
Precip. -- in
6:19 AM 7:44 PM
Waning Crescent, 6% visible
Pressure 29.92 in
Visibility 10.0 miles
Clouds Scattered Clouds 16000 ft
Dew Point 52 °F
Humidity 56%
Rainfall 0.03 in
Snow Depth 0 in
UV 3 out of 12
Pollen 9.30 out of 12
Ozone Good
PM2.5 Good
Flu Activity Not available.
METAR KAFF 222258Z 26002KT 10SM SCT160 20/11 A3014 RMK AO2A SLP130 P0001 T02010111

More Conditions Fewer Conditions

Pressure 29.92 in
Visibility 10.0 miles
Clouds Scattered Clouds 16000 ft
Dew Point 52 °F
Humidity 56%
Rainfall 0.03 in
Snow Depth 0 in
UV 3 out of 12
Pollen 9.30 out of 12
Ozone Good
PM2.5 Good
Flu Activity Not available.
METAR KAFF 222258Z 26002KT 10SM SCT160 20/11 A3014 RMK AO2A SLP130 P0001 T02010111

More Conditions Fewer Conditions

10-Day Weather Forecast

Almanac

Astronomy

Aug. 22, 2014 Rise Set
Actual Time 6:19 AM MDT 7:44 PM MDT
Civil Twilight 5:51 AM MDT 8:12 PM MDT
Nautical Twilight 5:17 AM MDT 8:45 PM MDT
Astronomical Twilight 4:42 AM MDT 9:20 PM MDT
Moon 3:44 AM MDT 5:54 PM MDT
Length of Visible Light 14h 21m
Length of Day
13h 25m
Tomorrow will be 2m 21s shorter.
Waning Crescent, 6% of the Moon is Illuminated
Today
Waning Crescent
Aug 25
New
Sep 2
First Quarter
Sep 8
Full
Sep 15
Last Quarter

Today's Extremes

State Highs State Lows

Community

WunderPhotos

Upload Photos

1,746,310 photos uploaded!

WunderBlogs® & News

By Dr. Jeff Masters
Director of Meteorology, Weather Underground
By Kari Strenfel
Meteorologist, Weather Underground
By Christopher C. Burt
Weather Historian, Weather Underground
August 22, 2014
August 22, 2014
August 22, 2014

Nearby

Air Quality

  Air Quality AQ Index Pollutant
Yesterday Good
OZONE
Yesterday Good
PM2.5
Current Good
OZONE
Current Good
PM2.5
Friday Good
PM2.5
Friday Good
OZONE
Saturday Good
PM2.5
Saturday Good
OZONE

Snow Depth

Station Depth Elevation
Glen Cove 0 in 11460 ft
Echo Lake 0 in 10600 ft
Jackwhacker Gulch 0 in 10960 ft
Rough And Tumble 1 in 10360 ft
Hoosier Pass 0 in 11400 ft

Earthquake Activity

City Distance Mag. Time & Date
No recent earthquake activity has been reported nearby.
Minimum magnitude displayed is 2.5.

Coastal Water Temperatures

Place Temperature
No Stations Reporting

Nearby Weather Stations